Airfield :
LOGIN :

Register | Disclaimer

   EN    FR    IT 

 










Legend :    VFR   Marginal VFR   IFR   Intensive IFR   Very Intensive IFR
Visi :
Ceiling :
>= 8 km
>= 3000ft
5 to 8 km
1000 to 3000 ft
1500m to 5 km
500 to 1000 ft
800 to 1500m
200 to 500 ft
< 800m
< 200 ft
Symbols :   Thunderstorms  Fog  Heavy snow  Heavy precipitations  Wind > 20 kt
SIGMETs :     Misc.  Thunderstorms  Icing  Turbulence  Mountain Waves  Volcanic Ashes







- Airport Elevation : 1568 ft


ETSB - Büchel AB

CURRENT METAR :
  • 301320Z 12005KT 9999 SCT048 SCT300 18/06 Q1025 BLU+BLU+

EXPIRED METARs :
  • 301220Z 13005KT 9999 SCT044 SCT300 17/06 Q1025 BLU+BLU+
  • 301120Z 16006KT 9999 FEW045 SCT300 18/07 Q1026 BLU+BLU+

TAF TAF ETSB
Valid from the 30 at 14:00 until the 30 at 23:00 UTC


301320Z 3014/3023 16007KT 9999 NSW FEW050 SCT300 BY ETGL
No reported NOTAMs for that airfield.



MET'MAP, your aeronautical weather chart ! - Copyright ORBIFLY December 2007 - Disclaimer

ORBIFLY MET'MAP TEAM :

Programming & Development : Alexandra Zaïnal
Concept & Development : Baudouin d'Aumeries
Co-Development & Prog : Marc-Olivier Méhu
Technical & hardware support : Manuel Goepfert

Contact : metmap@orbifly.com




SOURCES & CREDITS :

   NOAA